createdAt,value
2019-04-23T00:04:16.881Z,30.00
2019-04-23T00:07:15.458Z,30.10
2019-04-23T00:09:26.259Z,30.00
2019-04-23T00:12:11.351Z,30.00
2019-04-23T00:15:03.383Z,30.00
2019-04-23T00:17:26.809Z,30.00
2019-04-23T00:19:56.064Z,30.00
2019-04-23T00:22:43.527Z,30.00
2019-04-23T00:28:28.047Z,30.00
2019-04-23T00:33:34.219Z,30.00
2019-04-23T00:36:10.682Z,30.00
2019-04-23T00:38:45.569Z,30.00
2019-04-23T00:41:18.079Z,30.00
2019-04-23T00:43:48.736Z,29.90
2019-04-23T00:46:22.989Z,29.90
2019-04-23T00:49:05.326Z,29.90
2019-04-23T00:51:54.822Z,29.90
2019-04-23T00:54:28.809Z,29.90
2019-04-23T00:56:54.478Z,29.90
2019-04-23T00:59:33.951Z,29.80
2019-04-23T01:02:08.769Z,29.90
2019-04-23T01:07:29.854Z,29.90
2019-04-23T01:10:14.003Z,30.00
2019-04-23T01:13:14.843Z,30.00
2019-04-23T01:15:53.997Z,30.00
2019-04-23T01:18:45.910Z,30.00
2019-04-23T01:20:58.140Z,30.00
2019-04-23T01:24:27.303Z,30.00
2019-04-23T01:27:35.389Z,30.10
2019-04-23T01:29:57.628Z,30.10
2019-04-23T01:32:32.066Z,30.00
2019-04-23T01:35:13.891Z,30.10
2019-04-23T01:37:36.709Z,30.10
2019-04-23T01:40:12.343Z,30.20
2019-04-23T01:42:44.150Z,30.20
2019-04-23T01:45:20.411Z,30.20
2019-04-23T01:50:20.485Z,30.10
2019-04-23T01:52:52.151Z,30.20
2019-04-23T01:55:26.292Z,30.20
2019-04-23T01:58:07.052Z,30.20
2019-04-23T02:00:28.692Z,30.20
2019-04-23T02:03:01.812Z,30.20
2019-04-23T02:08:03.977Z,30.30
2019-04-23T02:10:44.644Z,30.30
2019-04-23T02:13:11.355Z,30.50
2019-04-23T02:15:43.950Z,30.50
2019-04-23T02:18:17.439Z,30.50
2019-04-23T02:21:11.829Z,30.50
2019-04-23T02:24:06.722Z,30.50
2019-04-23T02:29:24.842Z,30.50
2019-04-23T02:37:28.625Z,30.50
2019-04-23T02:42:40.922Z,30.50
2019-04-23T02:45:07.124Z,30.60
2019-04-23T02:57:54.176Z,30.60
2019-04-23T03:00:28.923Z,30.80
2019-04-23T03:05:45.500Z,30.70
2019-04-23T03:10:51.291Z,30.80
2019-04-23T03:13:32.050Z,30.80
2019-04-23T03:16:21.848Z,30.80
2019-04-23T03:21:46.843Z,30.80
2019-04-23T03:24:34.658Z,31.00
2019-04-23T03:27:10.232Z,30.90
2019-04-23T03:37:23.291Z,31.00
2019-04-23T03:39:56.729Z,30.90
2019-04-23T03:42:17.136Z,31.00
2019-04-23T03:44:56.238Z,31.00
2019-04-23T03:47:24.923Z,30.90
2019-04-23T03:49:55.726Z,30.90
2019-04-23T03:52:32.314Z,30.90
2019-04-23T04:00:15.346Z,30.90
2019-04-23T04:05:20.563Z,30.80
2019-04-23T04:07:47.000Z,30.80
2019-04-23T04:10:18.121Z,30.90
2019-04-23T04:13:22.536Z,30.90
2019-04-23T04:15:48.924Z,30.80
2019-04-23T04:18:28.443Z,30.70
2019-04-23T04:25:49.947Z,30.80
2019-04-23T04:28:17.824Z,30.70
2019-04-23T04:41:25.488Z,30.70
2019-04-23T04:52:00.840Z,30.70
2019-04-23T04:54:22.441Z,30.70
2019-04-23T04:59:37.479Z,30.70
2019-04-23T05:10:28.845Z,30.10
2019-04-23T05:12:59.999Z,30.10
2019-04-23T05:15:22.076Z,30.10
2019-04-23T05:18:22.863Z,30.20
2019-04-23T05:21:01.914Z,30.30
2019-04-23T05:29:01.900Z,30.20
2019-04-23T05:36:35.919Z,30.80
2019-04-23T05:39:15.451Z,30.20
2019-04-23T05:41:41.532Z,30.20
2019-04-23T05:47:13.259Z,30.60
2019-04-23T05:49:24.800Z,30.70
2019-04-23T05:52:24.463Z,30.80
2019-04-23T05:55:10.875Z,31.00
2019-04-23T05:57:38.975Z,31.20
2019-04-23T10:25:56.348Z,34.60
2019-04-23T10:28:42.354Z,37.60
2019-04-23T10:31:12.705Z,38.90
2019-04-23T10:33:48.536Z,38.30
2019-04-23T10:36:21.931Z,38.20
2019-04-23T10:38:57.109Z,38.00
2019-04-23T10:41:30.997Z,37.40
2019-04-23T10:44:07.079Z,37.20
2019-04-23T10:47:12.249Z,37.00
2019-04-23T10:49:53.499Z,36.70
2019-04-23T10:52:30.587Z,36.50
2019-04-23T10:54:45.359Z,36.30
2019-04-23T11:00:01.551Z,36.20
2019-04-23T11:10:05.169Z,35.80
2019-04-23T11:12:50.750Z,35.70
2019-04-23T11:15:26.797Z,35.70
2019-04-23T11:20:36.287Z,35.60
2019-04-23T11:22:48.125Z,35.50
2019-04-23T11:25:33.068Z,35.30
2019-04-23T11:28:03.098Z,35.10
2019-04-23T11:33:25.631Z,35.10
2019-04-23T11:38:48.772Z,35.00
2019-04-23T11:40:59.998Z,35.10
2019-04-23T11:43:32.964Z,35.00
2019-04-23T11:46:25.767Z,35.00
2019-04-23T11:49:19.654Z,35.00
2019-04-23T11:54:03.479Z,34.70
2019-04-23T11:57:04.117Z,34.70
2019-04-23T11:59:10.206Z,34.70
2019-04-23T12:07:22.938Z,34.60
2019-04-23T12:10:09.139Z,34.60
2019-04-23T12:12:29.763Z,34.60
2019-04-23T12:15:13.516Z,34.60
2019-04-23T12:20:25.570Z,34.60
2019-04-23T12:23:12.217Z,34.60
2019-04-23T12:25:47.479Z,34.60
2019-04-23T12:28:14.108Z,34.70
2019-04-23T12:33:20.656Z,34.70
2019-04-23T12:35:40.695Z,34.70
2019-04-23T12:38:22.121Z,34.60
2019-04-23T12:40:46.027Z,34.60
2019-04-23T12:43:19.297Z,35.00
2019-04-23T12:45:46.899Z,34.60
2019-04-23T12:55:57.919Z,34.60
2019-04-23T12:58:29.450Z,34.60
2019-04-23T13:01:22.616Z,34.60
2019-04-23T13:03:50.467Z,34.60
2019-04-23T13:06:39.184Z,34.50
2019-04-23T13:09:18.592Z,34.50
2019-04-23T13:11:40.784Z,34.50
2019-04-23T13:14:20.352Z,34.50
2019-04-23T13:16:44.674Z,34.60
2019-04-23T13:19:25.679Z,34.50
2019-04-23T13:22:04.369Z,34.50
2019-04-23T13:24:33.055Z,34.50
2019-04-23T13:27:15.807Z,34.50
2019-04-23T13:29:54.085Z,34.50
2019-04-23T13:32:20.467Z,34.50
2019-04-23T13:37:20.182Z,34.60
2019-04-23T13:42:37.946Z,34.50
2019-04-23T13:44:54.755Z,34.50
2019-04-23T13:47:41.396Z,34.50
2019-04-23T13:50:33.242Z,34.50
2019-04-23T13:53:22.259Z,34.50
2019-04-23T13:55:21.750Z,34.50
2019-04-23T14:02:56.021Z,34.40
2019-04-23T14:06:03.986Z,34.40
2019-04-23T14:11:19.819Z,34.40
2019-04-23T14:19:04.655Z,34.30
2019-04-23T14:21:51.732Z,34.40
2019-04-23T14:24:19.888Z,34.30
2019-04-23T14:29:19.023Z,34.30
2019-04-23T14:31:54.691Z,34.30
2019-04-23T14:34:19.612Z,34.30
2019-04-23T14:37:01.006Z,34.20
2019-04-23T14:39:25.097Z,34.10
2019-04-23T14:42:12.504Z,34.20
2019-04-23T14:44:36.590Z,34.30
2019-04-23T14:53:02.050Z,34.10
2019-04-23T14:58:36.869Z,34.00
2019-04-23T15:01:07.619Z,34.10
2019-04-23T15:03:33.243Z,34.00
2019-04-23T15:06:12.172Z,34.10
2019-04-23T15:12:11.925Z,33.90
2019-04-23T15:14:46.010Z,34.10
2019-04-23T15:17:26.905Z,34.10
2019-04-23T15:20:17.776Z,34.10
2019-04-23T15:22:53.246Z,34.00
2019-04-23T15:25:30.285Z,34.00
2019-04-23T15:28:06.119Z,34.70
2019-04-23T15:30:17.759Z,34.10
2019-04-23T15:33:03.880Z,34.10
2019-04-23T15:35:31.568Z,34.10
2019-04-23T15:38:19.045Z,34.10
2019-04-23T15:45:42.238Z,34.10
2019-04-23T15:48:13.769Z,34.00
2019-04-23T15:50:37.642Z,34.10
2019-04-23T15:53:08.057Z,34.10
2019-04-23T15:55:51.248Z,34.20
2019-04-23T15:58:17.433Z,34.10
2019-04-23T16:01:03.604Z,34.10
2019-04-23T16:02:55.724Z,34.10
2019-04-23T16:05:25.848Z,34.10
2019-04-23T16:08:41.493Z,34.10
2019-04-23T16:11:15.686Z,34.00
2019-04-23T16:13:37.348Z,34.00
2019-04-23T16:16:06.157Z,34.00
2019-04-23T16:19:11.774Z,34.10
2019-04-23T16:22:01.576Z,34.10
2019-04-23T16:24:48.810Z,34.10
2019-04-23T16:32:52.350Z,34.00
2019-04-23T16:40:54.793Z,33.90
2019-04-23T16:46:33.385Z,34.00
2019-04-23T16:49:13.124Z,33.90
2019-04-23T16:51:59.755Z,33.90
2019-04-23T17:02:54.712Z,34.60
2019-04-23T17:05:24.838Z,35.20
2019-04-23T17:08:30.910Z,36.30
2019-04-23T17:10:38.681Z,37.60
2019-04-23T17:13:14.329Z,38.70
2019-04-23T17:16:00.247Z,39.50
2019-04-23T17:18:31.901Z,40.40
2019-04-23T17:21:23.291Z,40.80
2019-04-23T17:24:09.921Z,41.20
2019-04-23T17:26:35.502Z,41.00
2019-04-23T17:29:15.185Z,41.10
2019-04-23T17:34:27.332Z,40.00
2019-04-23T17:37:00.658Z,39.30
2019-04-23T17:39:59.003Z,38.70
2019-04-23T17:42:40.144Z,38.30
2019-04-23T17:45:30.460Z,38.00
2019-04-23T17:53:22.242Z,37.00
2019-04-23T17:56:05.721Z,37.00
2019-04-23T17:58:23.322Z,37.00
2019-04-23T18:01:17.291Z,37.20
2019-04-23T18:03:49.233Z,37.20
2019-04-23T18:06:27.950Z,37.40
2019-04-23T18:11:26.843Z,37.50
2019-04-23T18:16:48.114Z,37.80
2019-04-23T18:19:22.835Z,37.90
2019-04-23T18:22:20.262Z,38.10
2019-04-23T18:27:46.982Z,38.00
2019-04-23T18:31:16.681Z,37.90
2019-04-23T18:36:45.679Z,37.90
2019-04-23T18:39:23.914Z,37.90
2019-04-23T18:41:59.963Z,37.80
2019-04-23T18:44:32.530Z,37.70
2019-04-23T18:47:00.333Z,37.80
2019-04-23T18:49:35.534Z,37.80
2019-04-23T18:51:59.428Z,37.80
2019-04-23T18:54:34.704Z,37.90
2019-04-23T19:10:57.847Z,38.20
2019-04-23T19:15:58.047Z,38.10
2019-04-23T19:18:41.621Z,38.30
2019-04-23T19:21:20.045Z,38.50
2019-04-23T19:23:47.243Z,38.70
2019-04-23T19:26:40.914Z,38.80
2019-04-23T19:29:36.991Z,38.90
2019-04-23T19:31:33.860Z,38.80
2019-04-23T19:34:24.612Z,38.70
2019-04-23T19:39:32.109Z,38.60
2019-04-23T19:42:06.736Z,38.50
2019-04-23T19:44:42.697Z,38.50
2019-04-23T19:49:37.022Z,38.80
2019-04-23T19:52:18.960Z,38.90
2019-04-23T19:55:03.381Z,38.80
2019-04-23T19:59:55.954Z,39.00
2019-04-23T20:02:45.260Z,38.80
2019-04-23T20:04:55.451Z,38.90
2019-04-23T20:12:34.362Z,38.70
2019-04-23T20:15:14.105Z,38.60
2019-04-23T20:18:15.095Z,38.50
2019-04-23T20:20:33.537Z,38.50
2019-04-23T20:23:38.071Z,38.40
2019-04-23T20:28:44.238Z,38.50
2019-04-23T20:34:24.514Z,38.40
2019-04-23T20:36:42.519Z,38.30
2019-04-23T20:39:16.965Z,38.20
2019-04-23T20:44:34.107Z,38.00
2019-04-23T20:49:44.199Z,38.00
2019-04-23T20:52:13.749Z,37.90
2019-04-23T20:54:56.929Z,37.90
2019-04-23T20:57:45.243Z,37.90
2019-04-23T21:00:12.134Z,37.80
2019-04-23T21:05:37.262Z,37.80
2019-04-23T21:08:24.563Z,37.70
2019-04-23T21:11:04.822Z,37.70
2019-04-23T21:14:01.630Z,37.50
2019-04-23T21:16:15.276Z,37.60
2019-04-23T21:18:48.001Z,37.70
2019-04-23T21:21:27.983Z,37.70
2019-04-23T21:24:17.378Z,37.70
2019-04-23T21:26:50.233Z,37.50
2019-04-23T21:29:40.253Z,37.60
2019-04-23T21:32:08.863Z,37.70
2019-04-23T21:34:43.801Z,37.70
2019-04-23T21:37:32.197Z,37.50
2019-04-23T21:40:56.564Z,37.50
2019-04-23T21:43:41.938Z,37.60
2019-04-23T21:46:08.186Z,37.50
2019-04-23T21:48:53.187Z,37.50
2019-04-23T21:53:46.432Z,37.40
2019-04-23T21:56:15.477Z,37.40
2019-04-23T21:58:53.620Z,37.30
2019-04-23T22:01:36.623Z,37.30
2019-04-23T22:04:08.649Z,37.30
2019-04-23T22:06:31.543Z,37.30
2019-04-23T22:09:00.880Z,37.30
2019-04-23T22:14:07.346Z,37.20
2019-04-23T22:16:47.009Z,37.20
2019-04-23T22:24:07.057Z,37.40
2019-04-23T22:27:05.899Z,37.40
2019-04-23T22:29:41.610Z,37.40
2019-04-23T22:32:04.443Z,37.40
2019-04-23T22:34:55.907Z,37.30
2019-04-23T22:37:42.426Z,37.40
2019-04-23T22:40:11.998Z,37.40
2019-04-23T22:43:09.079Z,37.30
2019-04-23T22:45:31.220Z,37.40
2019-04-23T22:48:04.681Z,37.40
2019-04-23T22:53:44.406Z,38.00
2019-04-23T22:56:10.744Z,37.40
2019-04-23T22:59:02.183Z,37.40
2019-04-23T23:01:26.242Z,37.40
2019-04-23T23:04:13.454Z,37.50
2019-04-23T23:06:57.313Z,37.70
2019-04-23T23:12:10.939Z,37.70
2019-04-23T23:14:35.448Z,37.80
2019-04-23T23:17:16.817Z,37.90
2019-04-23T23:22:21.864Z,38.20
2019-04-23T23:25:06.688Z,38.40
2019-04-23T23:28:06.014Z,38.40
2019-04-23T23:30:38.859Z,38.50
2019-04-23T23:33:09.412Z,38.60
2019-04-23T23:35:38.787Z,38.60
2019-04-23T23:38:13.630Z,38.70
2019-04-23T23:40:53.689Z,38.70
2019-04-23T23:43:30.262Z,38.60
2019-04-23T23:46:13.699Z,38.50
2019-04-23T23:48:35.008Z,38.40
2019-04-23T23:52:02.966Z,38.20
2019-04-23T23:54:43.797Z,38.00
2019-04-23T23:57:41.541Z,38.10
